createdAt,value
2022-08-07T00:00:25.449Z,1.00
2022-08-07T00:02:53.829Z,1.20
2022-08-07T00:05:23.800Z,1.07
2022-08-07T00:07:59.865Z,0.90
2022-08-07T00:10:30.703Z,0.77
2022-08-07T00:13:03.215Z,0.80
2022-08-07T00:15:50.835Z,0.80
2022-08-07T00:18:24.074Z,0.80
2022-08-07T00:20:54.039Z,0.60
2022-08-07T00:23:23.607Z,0.90
2022-08-07T00:26:00.262Z,1.00
2022-08-07T00:28:33.319Z,0.80
2022-08-07T00:31:06.206Z,1.13
2022-08-07T00:33:41.515Z,1.10
2022-08-07T00:36:10.583Z,0.87
2022-08-07T00:38:41.473Z,1.27
2022-08-07T00:41:14.747Z,1.00
2022-08-07T00:43:59.606Z,1.00
2022-08-07T00:46:32.902Z,1.10
2022-08-07T00:49:03.260Z,1.20
2022-08-07T00:51:58.378Z,1.10
2022-08-07T00:54:22.348Z,1.47
2022-08-07T00:56:51.495Z,1.30
2022-08-07T00:59:35.872Z,1.30
2022-08-07T01:02:08.844Z,1.30
2022-08-07T01:04:43.359Z,1.17
2022-08-07T01:07:12.925Z,1.20
2022-08-07T01:10:07.126Z,1.00
2022-08-07T01:12:31.346Z,1.20
2022-08-07T01:15:03.721Z,0.80
2022-08-07T01:17:32.996Z,0.90
2022-08-07T01:20:07.918Z,0.80
2022-08-07T01:22:46.881Z,0.90
2022-08-07T01:25:40.326Z,0.90
2022-08-07T01:28:15.730Z,1.03
2022-08-07T01:30:45.697Z,1.03
2022-08-07T01:33:16.620Z,1.10
2022-08-07T01:35:53.360Z,0.80
2022-08-07T01:38:29.082Z,1.03
2022-08-07T01:41:03.715Z,0.90
2022-08-07T01:43:38.192Z,1.40
2022-08-07T01:46:12.337Z,0.90
2022-08-07T01:48:46.602Z,1.00
2022-08-07T01:52:01.176Z,0.87
2022-08-07T01:54:36.304Z,0.80
2022-08-07T01:57:08.986Z,1.00
2022-08-07T01:59:55.925Z,0.87
2022-08-07T02:02:33.027Z,1.20
2022-08-07T02:05:43.373Z,1.00
2022-08-07T02:08:20.369Z,0.90
2022-08-07T02:10:58.121Z,0.90
2022-08-07T02:13:56.892Z,0.90
2022-08-07T02:16:28.799Z,1.10
2022-08-07T02:19:02.922Z,0.67
2022-08-07T02:21:56.554Z,0.77
2022-08-07T02:24:29.362Z,1.00
2022-08-07T02:27:01.643Z,0.70
2022-08-07T02:29:32.565Z,0.77
2022-08-07T02:32:05.427Z,0.80
2022-08-07T02:34:35.631Z,0.90
2022-08-07T02:37:19.948Z,0.60
2022-08-07T02:40:12.059Z,0.87
2022-08-07T02:42:39.994Z,0.73
2022-08-07T02:45:59.272Z,1.00
2022-08-07T02:48:01.716Z,0.70
2022-08-07T02:50:31.232Z,0.70
2022-08-07T02:53:06.166Z,0.97
2022-08-07T02:56:04.105Z,0.80
2022-08-07T02:58:33.245Z,0.87
2022-08-07T03:01:05.054Z,0.90
2022-08-07T03:03:50.153Z,0.90
2022-08-07T03:06:25.495Z,0.90
2022-08-07T03:08:55.295Z,1.00
2022-08-07T03:11:28.079Z,1.17
2022-08-07T03:14:01.823Z,0.73
2022-08-07T03:16:31.106Z,0.87
2022-08-07T03:19:00.311Z,0.90
2022-08-07T03:21:32.811Z,0.90
2022-08-07T03:24:19.629Z,1.00
2022-08-07T03:26:58.624Z,1.03
2022-08-07T03:29:33.939Z,0.87
2022-08-07T03:32:12.982Z,1.20
2022-08-07T03:35:01.057Z,1.00
2022-08-07T03:37:37.371Z,0.90
2022-08-07T03:40:16.854Z,0.80
2022-08-07T03:42:45.863Z,1.10
2022-08-07T03:45:29.987Z,0.90
2022-08-07T03:48:04.895Z,1.00
2022-08-07T03:50:39.178Z,0.90
2022-08-07T03:53:12.163Z,0.60
2022-08-07T03:55:57.656Z,1.00
2022-08-07T03:59:10.114Z,0.87
2022-08-07T04:01:25.557Z,1.23
2022-08-07T04:03:55.522Z,1.10
2022-08-07T04:06:38.449Z,1.10
2022-08-07T04:09:15.663Z,0.83
2022-08-07T04:12:21.231Z,1.00
2022-08-07T04:14:43.532Z,0.90
2022-08-07T04:18:56.817Z,1.20
2022-08-07T04:20:10.099Z,0.93
2022-08-07T04:22:40.996Z,0.70
2022-08-07T04:25:23.827Z,1.07
2022-08-07T04:28:00.301Z,0.93
2022-08-07T04:30:43.878Z,1.10
2022-08-07T04:33:25.420Z,0.83
2022-08-07T04:35:54.817Z,0.87
2022-08-07T04:38:27.713Z,1.00
2022-08-07T04:40:58.102Z,1.00
2022-08-07T04:44:12.023Z,0.97
2022-08-07T04:46:34.833Z,1.10
2022-08-07T04:49:25.477Z,1.10
2022-08-07T04:52:04.119Z,1.00
2022-08-07T04:54:37.147Z,0.90
2022-08-07T04:58:09.599Z,1.03
2022-08-07T05:00:17.276Z,0.90
2022-08-07T05:02:56.933Z,0.90
2022-08-07T05:05:54.144Z,0.87
2022-08-07T05:09:00.006Z,1.30
2022-08-07T05:11:24.315Z,1.00
2022-08-07T05:14:56.078Z,1.00
2022-08-07T05:16:54.014Z,1.07
2022-08-07T05:19:25.650Z,1.07
2022-08-07T05:22:05.727Z,1.10
2022-08-07T05:24:40.870Z,1.20
2022-08-07T05:27:18.454Z,1.03
2022-08-07T05:30:00.802Z,1.60
2022-08-07T05:32:29.755Z,1.63
2022-08-07T05:34:59.085Z,1.33
2022-08-07T05:37:28.697Z,1.57
2022-08-07T05:40:17.405Z,1.90
2022-08-07T05:42:55.948Z,1.57
2022-08-07T05:45:46.499Z,1.60
2022-08-07T05:48:16.606Z,2.20
2022-08-07T05:50:47.138Z,2.07
2022-08-07T05:54:09.295Z,1.83
2022-08-07T05:56:12.393Z,2.13
2022-08-07T05:58:52.446Z,2.10
2022-08-07T06:01:27.343Z,2.40
2022-08-07T06:04:05.506Z,2.10
2022-08-07T06:06:38.404Z,2.63
2022-08-07T06:09:18.685Z,2.50
2022-08-07T06:11:49.701Z,2.53
2022-08-07T06:14:28.498Z,2.53
2022-08-07T06:16:59.888Z,2.77
2022-08-07T06:19:58.038Z,2.70
2022-08-07T06:22:27.336Z,2.80
2022-08-07T06:25:10.176Z,2.87
2022-08-07T06:28:00.702Z,2.97
2022-08-07T06:30:35.648Z,2.97
2022-08-07T06:33:16.116Z,2.87
2022-08-07T06:36:06.786Z,3.57
2022-08-07T06:38:38.010Z,3.03
2022-08-07T06:41:12.935Z,3.00
2022-08-07T06:43:46.602Z,3.30
2022-08-07T06:46:31.324Z,3.53
2022-08-07T06:49:04.576Z,3.20
2022-08-07T06:51:43.441Z,3.00
2022-08-07T06:55:32.699Z,2.80
2022-08-07T06:57:13.511Z,3.07
2022-08-07T07:00:13.436Z,3.00
2022-08-07T07:02:48.326Z,2.67
2022-08-07T07:06:02.481Z,3.00
2022-08-07T07:08:07.213Z,2.60
2022-08-07T07:10:47.320Z,2.80
2022-08-07T07:13:55.536Z,2.50
2022-08-07T07:16:12.703Z,2.40
2022-08-07T07:18:51.212Z,2.10
2022-08-07T07:21:27.226Z,3.03
2022-08-07T07:24:12.602Z,2.70
2022-08-07T07:26:49.594Z,2.13
2022-08-07T07:29:39.049Z,2.20
2022-08-07T07:32:10.777Z,1.80
2022-08-07T07:34:44.871Z,2.17
2022-08-07T07:37:45.115Z,1.93
2022-08-07T07:40:14.787Z,2.40
2022-08-07T07:42:50.869Z,1.80
2022-08-07T07:46:37.921Z,1.50
2022-08-07T07:48:35.246Z,1.13
2022-08-07T07:51:08.071Z,1.20
2022-08-07T07:53:51.238Z,1.30
2022-08-07T07:56:30.435Z,1.33
2022-08-07T07:59:01.512Z,1.00
2022-08-07T08:02:02.576Z,1.10
2022-08-07T08:04:25.946Z,1.40
2022-08-07T08:06:57.101Z,1.40
2022-08-07T08:09:32.884Z,1.07
2022-08-07T08:12:50.087Z,1.20
2022-08-07T08:15:10.654Z,0.90
2022-08-07T08:17:58.294Z,1.03
2022-08-07T08:20:31.804Z,1.10
2022-08-07T08:23:18.878Z,0.93
2022-08-07T08:26:23.494Z,1.13
2022-08-07T08:28:57.068Z,0.93
2022-08-07T08:31:59.050Z,1.27
2022-08-07T08:34:26.787Z,1.03
2022-08-07T08:36:58.446Z,1.30
2022-08-07T08:39:39.587Z,1.10
2022-08-07T08:42:25.791Z,1.20
2022-08-07T08:45:04.866Z,1.00
2022-08-07T08:47:52.053Z,1.07
2022-08-07T08:50:34.760Z,1.17
2022-08-07T08:53:19.165Z,1.13
2022-08-07T08:55:54.730Z,1.13
2022-08-07T08:58:35.119Z,0.90
2022-08-07T09:01:15.275Z,1.10
2022-08-07T09:03:55.269Z,1.00
2022-08-07T09:06:42.685Z,0.90
2022-08-07T09:09:30.028Z,1.20
2022-08-07T09:12:31.361Z,1.10
2022-08-07T09:16:22.815Z,0.90
2022-08-07T09:18:24.316Z,0.90
2022-08-07T09:21:33.921Z,0.90
2022-08-07T09:24:28.433Z,0.97
2022-08-07T09:27:22.402Z,1.10
2022-08-07T09:30:04.470Z,1.20
2022-08-07T09:32:56.807Z,1.00
2022-08-07T09:36:03.159Z,1.10
2022-08-07T09:38:32.402Z,0.90
2022-08-07T09:41:15.512Z,1.00
2022-08-07T09:44:06.115Z,0.80
2022-08-07T09:47:50.519Z,0.90
2022-08-07T09:50:03.008Z,0.90
2022-08-07T09:52:51.544Z,0.70
2022-08-07T09:55:29.417Z,0.97
2022-08-07T09:58:43.434Z,0.87
2022-08-07T10:01:51.326Z,0.60
2022-08-07T10:04:57.158Z,0.63
2022-08-07T10:07:52.886Z,0.80
2022-08-07T10:11:07.716Z,0.67
2022-08-07T10:14:00.199Z,0.80
2022-08-07T10:17:01.787Z,0.80
2022-08-07T10:19:47.589Z,0.70
2022-08-07T10:22:46.083Z,0.77
2022-08-07T10:25:43.210Z,0.90
2022-08-07T10:28:39.143Z,0.80
2022-08-07T10:31:23.079Z,0.70
2022-08-07T10:34:15.506Z,1.03
2022-08-07T10:37:03.954Z,0.70
2022-08-07T10:39:57.638Z,0.80
2022-08-07T10:42:39.700Z,0.80
2022-08-07T10:45:19.363Z,0.50
2022-08-07T10:48:17.508Z,0.90
2022-08-07T10:50:51.730Z,0.60
2022-08-07T10:53:44.368Z,0.90
2022-08-07T10:56:30.807Z,0.50
2022-08-07T10:59:10.861Z,0.40
2022-08-07T11:01:51.563Z,0.50
2022-08-07T11:04:53.240Z,0.50
2022-08-07T11:07:59.106Z,0.70
2022-08-07T11:10:35.252Z,0.53
2022-08-07T11:14:42.090Z,0.60
2022-08-07T11:16:07.444Z,0.87
2022-08-07T11:18:41.371Z,0.60
2022-08-07T11:21:16.963Z,0.70
2022-08-07T11:23:55.441Z,0.60
2022-08-07T11:26:32.474Z,0.50
2022-08-07T11:29:13.240Z,0.77
2022-08-07T11:32:02.242Z,0.70
2022-08-07T11:34:37.748Z,0.57
2022-08-07T11:37:19.568Z,0.73
2022-08-07T11:40:04.493Z,0.47
2022-08-07T11:42:47.726Z,0.80
2022-08-07T11:45:36.471Z,0.80
2022-08-07T11:48:32.771Z,0.50
2022-08-07T11:51:40.815Z,0.80
2022-08-07T11:54:25.683Z,0.60
2022-08-07T11:57:12.584Z,0.70
2022-08-07T12:00:10.897Z,0.80
2022-08-07T12:02:57.971Z,0.80
2022-08-07T12:05:49.186Z,1.00
2022-08-07T12:08:29.510Z,0.70
2022-08-07T12:11:20.548Z,0.90
2022-08-07T12:13:55.226Z,0.60
2022-08-07T12:16:42.193Z,0.90
2022-08-07T12:19:21.577Z,0.53
2022-08-07T12:22:39.197Z,0.63
2022-08-07T12:26:00.343Z,0.80
2022-08-07T12:28:08.945Z,0.73
2022-08-07T12:30:46.969Z,0.70
2022-08-07T12:33:30.728Z,0.80
2022-08-07T12:36:15.094Z,0.60
2022-08-07T12:38:57.068Z,0.60
2022-08-07T12:41:29.086Z,0.83
2022-08-07T12:44:17.380Z,0.60
2022-08-07T12:47:01.637Z,0.70
2022-08-07T12:49:51.579Z,0.73
2022-08-07T12:52:36.497Z,0.87
2022-08-07T12:55:17.708Z,0.70
2022-08-07T12:58:01.050Z,0.60
2022-08-07T13:00:50.054Z,0.63
2022-08-07T13:04:02.765Z,0.70
2022-08-07T13:08:11.647Z,0.53
2022-08-07T13:10:39.418Z,0.70
2022-08-07T13:13:47.595Z,0.80
2022-08-07T13:16:17.256Z,0.70
2022-08-07T13:18:54.754Z,0.90
2022-08-07T13:21:37.279Z,0.50
2022-08-07T13:24:25.577Z,0.80
2022-08-07T13:27:02.790Z,0.63
2022-08-07T13:29:42.562Z,0.70
2022-08-07T13:32:31.333Z,0.80
2022-08-07T13:35:09.221Z,0.63
2022-08-07T13:37:47.312Z,1.10
2022-08-07T13:40:36.606Z,0.70
2022-08-07T13:43:15.163Z,0.63
2022-08-07T13:46:12.156Z,0.63
2022-08-07T13:48:38.447Z,0.70
2022-08-07T13:51:28.030Z,0.80
2022-08-07T13:54:01.968Z,0.67
2022-08-07T13:56:35.755Z,0.70
2022-08-07T13:59:13.815Z,0.80
2022-08-07T14:01:51.072Z,1.10
2022-08-07T14:04:35.330Z,0.73
2022-08-07T14:07:09.410Z,0.90
2022-08-07T14:10:02.722Z,0.70
2022-08-07T14:12:36.042Z,0.70
2022-08-07T14:15:18.819Z,0.90
2022-08-07T14:18:15.711Z,1.30
2022-08-07T14:20:48.865Z,0.90
2022-08-07T14:23:31.322Z,0.70
2022-08-07T14:26:29.981Z,0.77
2022-08-07T14:30:04.765Z,0.90
2022-08-07T14:31:56.491Z,0.80
2022-08-07T14:34:30.734Z,0.67
2022-08-07T14:37:02.044Z,0.90
2022-08-07T14:40:16.725Z,0.80
2022-08-07T14:42:32.663Z,0.73
2022-08-07T14:45:21.780Z,0.90
2022-08-07T14:47:58.533Z,0.80
2022-08-07T14:50:44.266Z,0.73
2022-08-07T14:56:07.053Z,0.70
2022-08-07T14:58:44.111Z,0.73
2022-08-07T15:04:05.901Z,0.70
2022-08-07T15:06:36.506Z,1.00
2022-08-07T15:10:00.085Z,0.80
2022-08-07T15:12:02.665Z,0.67
2022-08-07T15:14:56.003Z,0.70
2022-08-07T15:17:32.508Z,0.70
2022-08-07T15:23:20.164Z,0.80
2022-08-07T15:25:54.704Z,0.73
2022-08-07T15:28:34.389Z,0.77
2022-08-07T15:31:07.479Z,0.90
2022-08-07T15:33:42.663Z,0.77
2022-08-07T15:36:12.783Z,0.90
2022-08-07T15:42:46.438Z,0.90
2022-08-07T15:44:24.283Z,0.87
2022-08-07T15:46:58.736Z,0.83
2022-08-07T15:50:05.326Z,0.63
2022-08-07T15:52:30.231Z,0.70
2022-08-07T15:55:02.404Z,1.03
2022-08-07T15:57:47.771Z,0.90
2022-08-07T16:00:22.762Z,0.80
2022-08-07T16:03:02.388Z,0.77
2022-08-07T16:05:32.144Z,0.70
2022-08-07T16:08:31.123Z,0.80
2022-08-07T16:11:00.936Z,0.80
2022-08-07T16:14:03.278Z,0.80
2022-08-07T16:16:49.966Z,0.77
2022-08-07T16:20:04.717Z,0.70
2022-08-07T16:22:54.915Z,0.80
2022-08-07T16:25:52.341Z,0.67
2022-08-07T16:30:08.641Z,0.80
2022-08-07T16:31:51.708Z,0.73
2022-08-07T16:34:33.946Z,0.80
2022-08-07T16:38:06.342Z,0.90
2022-08-07T16:41:22.371Z,1.00
2022-08-07T16:44:46.350Z,1.00
2022-08-07T16:47:52.938Z,0.80
2022-08-07T16:50:39.348Z,0.80
2022-08-07T16:54:01.712Z,1.00
2022-08-07T16:56:37.677Z,0.80
2022-08-07T16:59:17.699Z,0.80
2022-08-07T17:02:03.192Z,0.80
2022-08-07T17:04:58.516Z,0.87
2022-08-07T17:07:55.826Z,0.77
2022-08-07T17:10:33.235Z,0.80
2022-08-07T17:13:25.388Z,0.70
2022-08-07T17:16:16.368Z,1.30
2022-08-07T17:18:50.326Z,0.83
2022-08-07T17:21:23.082Z,0.90
2022-08-07T17:24:23.764Z,0.80
2022-08-07T17:27:01.393Z,2.77
2022-08-07T17:30:14.763Z,1.30
2022-08-07T17:32:52.055Z,0.90
2022-08-07T17:35:51.468Z,1.10
2022-08-07T17:38:33.023Z,0.80
2022-08-07T17:41:12.509Z,2.60
2022-08-07T17:44:05.868Z,1.80
2022-08-07T17:46:41.773Z,1.70
2022-08-07T17:49:23.150Z,1.00
2022-08-07T17:52:00.530Z,1.00
2022-08-07T17:54:53.569Z,0.90
2022-08-07T17:57:56.061Z,1.03
2022-08-07T18:00:33.293Z,0.80
2022-08-07T18:03:18.298Z,1.20
2022-08-07T18:06:01.633Z,1.30
2022-08-07T18:08:33.832Z,0.90
2022-08-07T18:12:07.255Z,1.03
2022-08-07T18:14:10.167Z,1.10
2022-08-07T18:16:57.874Z,1.00
2022-08-07T18:21:12.557Z,0.80
2022-08-07T18:22:36.400Z,0.90
2022-08-07T18:25:24.322Z,0.90
2022-08-07T18:28:34.542Z,2.00
2022-08-07T18:31:07.555Z,1.10
2022-08-07T18:34:35.826Z,1.20
2022-08-07T18:37:15.100Z,1.23
2022-08-07T18:40:42.943Z,1.10
2022-08-07T18:43:15.112Z,1.40
2022-08-07T18:46:24.340Z,1.00
2022-08-07T18:50:19.206Z,0.90
2022-08-07T18:52:25.415Z,1.00
2022-08-07T18:54:49.807Z,1.20
2022-08-07T18:57:31.462Z,0.97
2022-08-07T19:00:33.441Z,1.17
2022-08-07T19:03:12.034Z,0.90
2022-08-07T19:06:04.142Z,0.90
2022-08-07T19:08:46.551Z,0.83
2022-08-07T19:11:36.285Z,0.80
2022-08-07T19:14:20.030Z,0.80
2022-08-07T19:17:04.585Z,0.70
2022-08-07T19:19:48.745Z,0.87
2022-08-07T19:22:30.273Z,0.90
2022-08-07T19:25:05.739Z,1.00
2022-08-07T19:30:56.702Z,0.90
2022-08-07T19:31:02.942Z,0.97
2022-08-07T19:33:33.229Z,0.80
2022-08-07T19:36:02.931Z,0.80
2022-08-07T19:38:36.193Z,0.90
2022-08-07T19:41:45.000Z,0.83
2022-08-07T19:44:21.116Z,1.00
2022-08-07T19:46:57.811Z,1.13
2022-08-07T19:49:57.417Z,0.90
2022-08-07T19:52:22.494Z,1.27
2022-08-07T19:54:56.600Z,1.53
2022-08-07T19:58:04.684Z,1.50
2022-08-07T20:00:28.944Z,1.10
2022-08-07T20:03:02.834Z,0.90
2022-08-07T20:06:00.085Z,0.90
2022-08-07T20:08:24.666Z,0.80
2022-08-07T20:11:01.853Z,0.70
2022-08-07T20:13:43.182Z,0.73
2022-08-07T20:16:15.739Z,0.50
2022-08-07T20:19:05.432Z,0.73
2022-08-07T20:21:46.655Z,0.77
2022-08-07T20:24:20.377Z,0.50
2022-08-07T20:26:54.908Z,0.60
2022-08-07T20:29:49.465Z,0.80
2022-08-07T20:32:23.201Z,0.70
2022-08-07T20:34:57.268Z,0.87
2022-08-07T20:37:32.206Z,0.93
2022-08-07T20:40:31.452Z,0.70
2022-08-07T20:42:57.969Z,0.77
2022-08-07T20:45:33.809Z,0.67
2022-08-07T20:48:28.588Z,0.70
2022-08-07T20:50:58.429Z,0.60
2022-08-07T20:54:02.048Z,0.70
2022-08-07T20:56:16.673Z,0.60
2022-08-07T20:59:00.009Z,0.70
2022-08-07T21:01:45.412Z,0.80
2022-08-07T21:04:23.624Z,1.10
2022-08-07T21:06:56.949Z,0.80
2022-08-07T21:09:51.646Z,0.67
2022-08-07T21:12:25.976Z,0.80
2022-08-07T21:15:03.938Z,0.80
2022-08-07T21:18:01.877Z,0.80
2022-08-07T21:20:30.321Z,1.00
2022-08-07T21:23:07.693Z,0.83
2022-08-07T21:25:56.575Z,0.80
2022-08-07T21:28:48.960Z,0.90
2022-08-07T21:31:49.987Z,0.87
2022-08-07T21:34:26.653Z,0.90
2022-08-07T21:37:03.883Z,0.90
2022-08-07T21:39:47.691Z,1.10
2022-08-07T21:42:49.304Z,0.93
2022-08-07T21:46:09.455Z,0.80
2022-08-07T21:48:28.706Z,0.90
2022-08-07T21:51:19.388Z,1.17
2022-08-07T21:53:53.516Z,0.80
2022-08-07T21:56:37.793Z,1.07
2022-08-07T21:59:14.157Z,0.90
2022-08-07T22:02:10.971Z,1.00
2022-08-07T22:04:52.650Z,0.83
2022-08-07T22:07:31.641Z,0.90
2022-08-07T22:10:18.256Z,0.97
2022-08-07T22:12:53.667Z,0.73
2022-08-07T22:16:39.950Z,0.90
2022-08-07T22:18:25.286Z,0.80
2022-08-07T22:20:59.647Z,0.80
2022-08-07T22:23:40.502Z,0.70
2022-08-07T22:26:18.511Z,1.20
2022-08-07T22:28:54.297Z,1.10
2022-08-07T22:31:56.060Z,1.60
2022-08-07T22:34:28.589Z,1.60
2022-08-07T22:37:19.172Z,1.10
2022-08-07T22:39:54.019Z,1.07
2022-08-07T22:42:25.891Z,1.10
2022-08-07T22:44:59.976Z,1.07
2022-08-07T22:47:52.454Z,0.80
2022-08-07T22:50:37.009Z,0.90
2022-08-07T22:54:05.048Z,1.10
2022-08-07T22:56:24.152Z,1.00
2022-08-07T22:59:28.387Z,1.53
2022-08-07T23:02:08.697Z,1.30
2022-08-07T23:04:58.632Z,1.40
2022-08-07T23:07:53.620Z,1.17
2022-08-07T23:10:42.184Z,0.90
2022-08-07T23:13:48.665Z,1.03
2022-08-07T23:16:54.581Z,1.00
2022-08-07T23:19:58.534Z,1.27
2022-08-07T23:22:40.399Z,1.70
2022-08-07T23:25:20.822Z,1.20
2022-08-07T23:28:22.209Z,1.50
2022-08-07T23:31:42.624Z,1.23
2022-08-07T23:34:34.013Z,1.43
2022-08-07T23:37:22.646Z,1.20
2022-08-07T23:40:07.549Z,1.07
2022-08-07T23:42:53.393Z,1.00
2022-08-07T23:46:01.635Z,1.10
2022-08-07T23:48:43.922Z,1.20
2022-08-07T23:53:00.113Z,0.90
2022-08-07T23:54:36.177Z,1.20
2022-08-07T23:57:18.570Z,1.27
